sensor_id;sensor_type;location;lat;lon;timestamp;temperature;humidity
76263;DHT22;65080;50.908;6.916;2023-07-13T00:01:09;19.70;45.80
76263;DHT22;65080;50.908;6.916;2023-07-13T00:03:37;19.70;46.00
76263;DHT22;65080;50.908;6.916;2023-07-13T00:06:08;19.60;46.10
76263;DHT22;65080;50.908;6.916;2023-07-13T00:08:39;19.50;46.20
76263;DHT22;65080;50.908;6.916;2023-07-13T00:11:07;19.60;46.30
76263;DHT22;65080;50.908;6.916;2023-07-13T00:13:37;19.60;46.40
76263;DHT22;65080;50.908;6.916;2023-07-13T00:16:07;19.60;46.50
76263;DHT22;65080;50.908;6.916;2023-07-13T00:18:36;19.60;46.60
76263;DHT22;65080;50.908;6.916;2023-07-13T00:21:04;19.50;46.70
76263;DHT22;65080;50.908;6.916;2023-07-13T00:23:33;19.60;46.90
76263;DHT22;65080;50.908;6.916;2023-07-13T00:26:05;19.60;46.90
76263;DHT22;65080;50.908;6.916;2023-07-13T00:28:35;19.50;46.90
76263;DHT22;65080;50.908;6.916;2023-07-13T00:31:03;19.50;47.00
76263;DHT22;65080;50.908;6.916;2023-07-13T00:33:35;19.50;47.10
76263;DHT22;65080;50.908;6.916;2023-07-13T00:36:04;19.50;47.10
76263;DHT22;65080;50.908;6.916;2023-07-13T00:38:32;19.50;47.10
76263;DHT22;65080;50.908;6.916;2023-07-13T00:41:02;19.50;47.20
76263;DHT22;65080;50.908;6.916;2023-07-13T00:43:31;19.50;47.20
76263;DHT22;65080;50.908;6.916;2023-07-13T00:46:26;19.50;47.40
76263;DHT22;65080;50.908;6.916;2023-07-13T00:48:57;19.50;47.70
76263;DHT22;65080;50.908;6.916;2023-07-13T00:51:31;19.50;47.50
76263;DHT22;65080;50.908;6.916;2023-07-13T00:54:04;19.50;47.60
76263;DHT22;65080;50.908;6.916;2023-07-13T00:56:34;19.50;47.60
76263;DHT22;65080;50.908;6.916;2023-07-13T00:59:05;19.50;47.70
76263;DHT22;65080;50.908;6.916;2023-07-13T01:01:34;19.50;47.80
76263;DHT22;65080;50.908;6.916;2023-07-13T01:04:04;19.60;48.10
76263;DHT22;65080;50.908;6.916;2023-07-13T01:06:35;19.50;48.10
76263;DHT22;65080;50.908;6.916;2023-07-13T01:09:05;19.60;48.30
76263;DHT22;65080;50.908;6.916;2023-07-13T01:11:36;19.60;48.30
76263;DHT22;65080;50.908;6.916;2023-07-13T01:14:04;19.60;48.30
76263;DHT22;65080;50.908;6.916;2023-07-13T01:16:34;19.60;48.30
76263;DHT22;65080;50.908;6.916;2023-07-13T01:19:08;19.60;48.50
76263;DHT22;65080;50.908;6.916;2023-07-13T01:21:42;19.60;48.60
76263;DHT22;65080;50.908;6.916;2023-07-13T01:24:10;19.60;48.60
76263;DHT22;65080;50.908;6.916;2023-07-13T01:26:38;19.60;48.60
76263;DHT22;65080;50.908;6.916;2023-07-13T01:29:07;19.60;48.70
76263;DHT22;65080;50.908;6.916;2023-07-13T01:31:35;19.50;48.70
76263;DHT22;65080;50.908;6.916;2023-07-13T01:34:04;19.50;48.80
76263;DHT22;65080;50.908;6.916;2023-07-13T01:36:33;19.50;48.80
76263;DHT22;65080;50.908;6.916;2023-07-13T01:39:03;19.40;48.90
76263;DHT22;65080;50.908;6.916;2023-07-13T01:41:31;19.40;49.00
76263;DHT22;65080;50.908;6.916;2023-07-13T01:43:59;19.40;49.00
76263;DHT22;65080;50.908;6.916;2023-07-13T01:46:28;19.30;48.80
76263;DHT22;65080;50.908;6.916;2023-07-13T01:48:56;19.30;48.80
76263;DHT22;65080;50.908;6.916;2023-07-13T01:51:25;19.30;49.00
76263;DHT22;65080;50.908;6.916;2023-07-13T01:53:53;19.20;48.90
76263;DHT22;65080;50.908;6.916;2023-07-13T01:56:23;19.20;49.00
76263;DHT22;65080;50.908;6.916;2023-07-13T01:58:52;19.10;49.10
76263;DHT22;65080;50.908;6.916;2023-07-13T02:01:20;19.10;49.30
76263;DHT22;65080;50.908;6.916;2023-07-13T02:03:48;19.10;49.40
76263;DHT22;65080;50.908;6.916;2023-07-13T02:06:17;19.10;49.50
76263;DHT22;65080;50.908;6.916;2023-07-13T02:08:45;19.10;49.50
76263;DHT22;65080;50.908;6.916;2023-07-13T02:11:13;19.10;49.60
76263;DHT22;65080;50.908;6.916;2023-07-13T02:13:43;19.10;49.60
76263;DHT22;65080;50.908;6.916;2023-07-13T02:16:12;19.10;49.80
76263;DHT22;65080;50.908;6.916;2023-07-13T02:18:41;19.10;49.80
76263;DHT22;65080;50.908;6.916;2023-07-13T02:21:09;19.00;49.80
76263;DHT22;65080;50.908;6.916;2023-07-13T02:23:37;19.00;50.00
76263;DHT22;65080;50.908;6.916;2023-07-13T02:26:06;19.00;50.10
76263;DHT22;65080;50.908;6.916;2023-07-13T02:28:35;19.00;50.20
76263;DHT22;65080;50.908;6.916;2023-07-13T02:31:09;19.00;50.10
76263;DHT22;65080;50.908;6.916;2023-07-13T02:33:38;19.00;50.20
76263;DHT22;65080;50.908;6.916;2023-07-13T02:36:06;19.00;50.20
76263;DHT22;65080;50.908;6.916;2023-07-13T02:38:35;19.00;50.40
76263;DHT22;65080;50.908;6.916;2023-07-13T02:41:04;18.90;50.50
76263;DHT22;65080;50.908;6.916;2023-07-13T02:43:33;18.90;50.60
76263;DHT22;65080;50.908;6.916;2023-07-13T02:46:02;18.90;50.80
76263;DHT22;65080;50.908;6.916;2023-07-13T02:48:40;18.70;50.80
76263;DHT22;65080;50.908;6.916;2023-07-13T02:51:08;18.80;51.00
76263;DHT22;65080;50.908;6.916;2023-07-13T02:53:37;18.70;50.90
76263;DHT22;65080;50.908;6.916;2023-07-13T02:56:05;18.70;51.00
76263;DHT22;65080;50.908;6.916;2023-07-13T02:58:34;18.70;51.10
76263;DHT22;65080;50.908;6.916;2023-07-13T03:01:08;18.70;51.10
76263;DHT22;65080;50.908;6.916;2023-07-13T03:03:36;18.60;51.10
76263;DHT22;65080;50.908;6.916;2023-07-13T03:06:06;18.60;51.20
76263;DHT22;65080;50.908;6.916;2023-07-13T03:08:36;18.60;51.30
76263;DHT22;65080;50.908;6.916;2023-07-13T03:11:06;18.60;51.40
76263;DHT22;65080;50.908;6.916;2023-07-13T03:13:35;18.60;51.50
76263;DHT22;65080;50.908;6.916;2023-07-13T03:16:04;18.50;51.50
76263;DHT22;65080;50.908;6.916;2023-07-13T03:18:33;18.50;51.70
76263;DHT22;65080;50.908;6.916;2023-07-13T03:21:01;18.50;51.80
76263;DHT22;65080;50.908;6.916;2023-07-13T03:23:31;18.40;51.90
76263;DHT22;65080;50.908;6.916;2023-07-13T03:26:04;18.40;52.10
76263;DHT22;65080;50.908;6.916;2023-07-13T03:28:33;18.40;52.20
76263;DHT22;65080;50.908;6.916;2023-07-13T03:31:04;18.40;52.10
76263;DHT22;65080;50.908;6.916;2023-07-13T03:33:32;18.40;52.20
76263;DHT22;65080;50.908;6.916;2023-07-13T03:36:01;18.30;52.10
76263;DHT22;65080;50.908;6.916;2023-07-13T03:38:31;18.30;52.20
76263;DHT22;65080;50.908;6.916;2023-07-13T03:41:00;18.30;52.20
76263;DHT22;65080;50.908;6.916;2023-07-13T03:43:28;18.30;52.20
76263;DHT22;65080;50.908;6.916;2023-07-13T03:45:57;18.30;52.40
76263;DHT22;65080;50.908;6.916;2023-07-13T03:48:25;18.30;52.30
76263;DHT22;65080;50.908;6.916;2023-07-13T03:50:53;18.30;52.30
76263;DHT22;65080;50.908;6.916;2023-07-13T03:53:21;18.30;52.30
76263;DHT22;65080;50.908;6.916;2023-07-13T03:55:51;18.30;52.40
76263;DHT22;65080;50.908;6.916;2023-07-13T03:58:31;18.30;52.40
76263;DHT22;65080;50.908;6.916;2023-07-13T04:01:01;18.30;52.60
76263;DHT22;65080;50.908;6.916;2023-07-13T04:03:29;18.30;52.60
76263;DHT22;65080;50.908;6.916;2023-07-13T04:06:00;18.20;52.60
76263;DHT22;65080;50.908;6.916;2023-07-13T04:08:29;18.20;52.60
76263;DHT22;65080;50.908;6.916;2023-07-13T04:11:00;18.20;52.60
76263;DHT22;65080;50.908;6.916;2023-07-13T04:13:29;18.20;52.70
76263;DHT22;65080;50.908;6.916;2023-07-13T04:15:57;18.20;52.70
76263;DHT22;65080;50.908;6.916;2023-07-13T04:18:26;18.20;52.70
76263;DHT22;65080;50.908;6.916;2023-07-13T04:20:54;18.10;52.70
76263;DHT22;65080;50.908;6.916;2023-07-13T04:23:23;18.20;52.90
76263;DHT22;65080;50.908;6.916;2023-07-13T04:25:52;18.20;53.00
76263;DHT22;65080;50.908;6.916;2023-07-13T04:28:24;18.10;53.00
76263;DHT22;65080;50.908;6.916;2023-07-13T04:30:53;18.10;53.20
76263;DHT22;65080;50.908;6.916;2023-07-13T04:33:22;18.10;53.30
76263;DHT22;65080;50.908;6.916;2023-07-13T04:35:51;18.10;53.40
76263;DHT22;65080;50.908;6.916;2023-07-13T04:38:23;18.10;53.40
76263;DHT22;65080;50.908;6.916;2023-07-13T04:40:54;18.10;53.50
76263;DHT22;65080;50.908;6.916;2023-07-13T04:43:25;18.10;53.60
76263;DHT22;65080;50.908;6.916;2023-07-13T04:45:53;18.10;53.70
76263;DHT22;65080;50.908;6.916;2023-07-13T04:48:22;18.00;53.80
76263;DHT22;65080;50.908;6.916;2023-07-13T04:50:55;17.90;53.90
76263;DHT22;65080;50.908;6.916;2023-07-13T04:53:24;17.90;54.10
76263;DHT22;65080;50.908;6.916;2023-07-13T04:55:52;17.80;54.20
76263;DHT22;65080;50.908;6.916;2023-07-13T04:58:21;17.80;54.30
76263;DHT22;65080;50.908;6.916;2023-07-13T05:00:51;17.80;54.50
76263;DHT22;65080;50.908;6.916;2023-07-13T05:03:19;17.80;54.50
76263;DHT22;65080;50.908;6.916;2023-07-13T05:05:56;17.90;54.70
76263;DHT22;65080;50.908;6.916;2023-07-13T05:08:25;17.90;54.90
76263;DHT22;65080;50.908;6.916;2023-07-13T05:10:53;17.90;54.90
76263;DHT22;65080;50.908;6.916;2023-07-13T05:13:22;17.90;54.80
76263;DHT22;65080;50.908;6.916;2023-07-13T05:16:00;18.00;54.90
76263;DHT22;65080;50.908;6.916;2023-07-13T05:18:29;18.00;54.90
76263;DHT22;65080;50.908;6.916;2023-07-13T05:20:59;18.10;55.00
76263;DHT22;65080;50.908;6.916;2023-07-13T05:23:29;18.10;55.00
76263;DHT22;65080;50.908;6.916;2023-07-13T05:25:58;18.10;55.00
76263;DHT22;65080;50.908;6.916;2023-07-13T05:28:27;18.20;55.10
76263;DHT22;65080;50.908;6.916;2023-07-13T05:30:58;18.20;55.10
76263;DHT22;65080;50.908;6.916;2023-07-13T05:33:26;18.30;55.10
76263;DHT22;65080;50.908;6.916;2023-07-13T05:35:55;18.40;55.20
76263;DHT22;65080;50.908;6.916;2023-07-13T05:38:23;18.40;55.10
76263;DHT22;65080;50.908;6.916;2023-07-13T05:40:53;18.50;55.10
76263;DHT22;65080;50.908;6.916;2023-07-13T05:43:22;18.60;55.00
76263;DHT22;65080;50.908;6.916;2023-07-13T05:45:54;18.70;54.90
76263;DHT22;65080;50.908;6.916;2023-07-13T05:48:24;18.70;55.00
76263;DHT22;65080;50.908;6.916;2023-07-13T05:50:52;18.80;55.00
76263;DHT22;65080;50.908;6.916;2023-07-13T05:53:20;18.80;55.00
76263;DHT22;65080;50.908;6.916;2023-07-13T05:55:48;18.90;55.00
76263;DHT22;65080;50.908;6.916;2023-07-13T05:58:20;18.90;55.00
76263;DHT22;65080;50.908;6.916;2023-07-13T06:00:48;19.00;55.10
76263;DHT22;65080;50.908;6.916;2023-07-13T06:03:17;19.00;55.10
76263;DHT22;65080;50.908;6.916;2023-07-13T06:05:46;19.10;55.00
76263;DHT22;65080;50.908;6.916;2023-07-13T06:08:15;19.20;55.10
76263;DHT22;65080;50.908;6.916;2023-07-13T06:10:43;19.20;55.10
76263;DHT22;65080;50.908;6.916;2023-07-13T06:13:11;19.10;55.00
76263;DHT22;65080;50.908;6.916;2023-07-13T06:15:39;19.10;55.20
76263;DHT22;65080;50.908;6.916;2023-07-13T06:18:08;19.10;55.30
76263;DHT22;65080;50.908;6.916;2023-07-13T06:20:36;19.20;55.50
76263;DHT22;65080;50.908;6.916;2023-07-13T06:23:05;19.20;55.40
76263;DHT22;65080;50.908;6.916;2023-07-13T06:25:34;19.20;55.50
76263;DHT22;65080;50.908;6.916;2023-07-13T06:28:02;19.30;56.20
76263;DHT22;65080;50.908;6.916;2023-07-13T06:30:30;19.40;55.60
76263;DHT22;65080;50.908;6.916;2023-07-13T06:33:00;19.40;55.60
76263;DHT22;65080;50.908;6.916;2023-07-13T06:35:28;19.50;55.60
76263;DHT22;65080;50.908;6.916;2023-07-13T06:37:56;19.50;55.50
76263;DHT22;65080;50.908;6.916;2023-07-13T06:40:26;19.50;55.50
76263;DHT22;65080;50.908;6.916;2023-07-13T06:42:56;19.50;55.50
76263;DHT22;65080;50.908;6.916;2023-07-13T06:45:24;19.40;55.60
76263;DHT22;65080;50.908;6.916;2023-07-13T06:47:52;19.30;55.70
76263;DHT22;65080;50.908;6.916;2023-07-13T06:50:21;19.30;55.80
76263;DHT22;65080;50.908;6.916;2023-07-13T06:52:49;19.40;56.00
76263;DHT22;65080;50.908;6.916;2023-07-13T06:55:17;19.40;56.10
76263;DHT22;65080;50.908;6.916;2023-07-13T06:57:47;19.40;56.10
76263;DHT22;65080;50.908;6.916;2023-07-13T07:00:15;19.50;56.20
76263;DHT22;65080;50.908;6.916;2023-07-13T07:02:44;19.60;56.10
76263;DHT22;65080;50.908;6.916;2023-07-13T07:05:12;19.70;55.90
76263;DHT22;65080;50.908;6.916;2023-07-13T07:07:40;19.70;55.90
76263;DHT22;65080;50.908;6.916;2023-07-13T07:10:09;19.70;55.80
76263;DHT22;65080;50.908;6.916;2023-07-13T07:12:37;19.80;55.80
76263;DHT22;65080;50.908;6.916;2023-07-13T07:15:07;19.80;55.80
76263;DHT22;65080;50.908;6.916;2023-07-13T07:17:36;19.80;55.70
76263;DHT22;65080;50.908;6.916;2023-07-13T07:20:05;19.80;55.80
76263;DHT22;65080;50.908;6.916;2023-07-13T07:22:34;19.80;55.80
76263;DHT22;65080;50.908;6.916;2023-07-13T07:25:02;19.90;55.90
76263;DHT22;65080;50.908;6.916;2023-07-13T07:27:31;19.80;55.70
76263;DHT22;65080;50.908;6.916;2023-07-13T07:30:07;19.80;55.80
76263;DHT22;65080;50.908;6.916;2023-07-13T07:32:38;19.80;55.80
76263;DHT22;65080;50.908;6.916;2023-07-13T07:35:10;19.70;55.80
76263;DHT22;65080;50.908;6.916;2023-07-13T07:37:38;19.70;56.40
76263;DHT22;65080;50.908;6.916;2023-07-13T07:40:09;19.80;56.00
76263;DHT22;65080;50.908;6.916;2023-07-13T07:42:40;19.90;55.90
76263;DHT22;65080;50.908;6.916;2023-07-13T07:45:10;20.00;55.70
76263;DHT22;65080;50.908;6.916;2023-07-13T07:47:39;20.20;55.50
76263;DHT22;65080;50.908;6.916;2023-07-13T07:50:08;20.30;55.50
76263;DHT22;65080;50.908;6.916;2023-07-13T07:52:37;20.20;55.40
76263;DHT22;65080;50.908;6.916;2023-07-13T07:55:07;20.20;55.90
76263;DHT22;65080;50.908;6.916;2023-07-13T07:57:38;20.30;55.30
76263;DHT22;65080;50.908;6.916;2023-07-13T08:00:13;20.30;55.20
76263;DHT22;65080;50.908;6.916;2023-07-13T08:02:44;20.30;55.20
76263;DHT22;65080;50.908;6.916;2023-07-13T08:05:16;20.50;55.20
76263;DHT22;65080;50.908;6.916;2023-07-13T08:08:05;20.50;55.00
76263;DHT22;65080;50.908;6.916;2023-07-13T08:10:35;20.60;54.90
76263;DHT22;65080;50.908;6.916;2023-07-13T08:13:03;20.70;54.80
76263;DHT22;65080;50.908;6.916;2023-07-13T08:15:37;20.70;54.70
76263;DHT22;65080;50.908;6.916;2023-07-13T08:18:05;20.60;54.60
76263;DHT22;65080;50.908;6.916;2023-07-13T08:20:37;20.60;54.60
76263;DHT22;65080;50.908;6.916;2023-07-13T08:23:05;20.60;54.70
76263;DHT22;65080;50.908;6.916;2023-07-13T08:25:34;20.60;54.70
76263;DHT22;65080;50.908;6.916;2023-07-13T08:28:03;20.70;54.70
76263;DHT22;65080;50.908;6.916;2023-07-13T08:30:31;20.80;54.60
76263;DHT22;65080;50.908;6.916;2023-07-13T08:33:01;20.80;54.50
76263;DHT22;65080;50.908;6.916;2023-07-13T08:35:29;20.80;54.30
76263;DHT22;65080;50.908;6.916;2023-07-13T08:37:57;20.90;54.20
76263;DHT22;65080;50.908;6.916;2023-07-13T08:40:27;21.00;54.00
76263;DHT22;65080;50.908;6.916;2023-07-13T08:42:58;21.00;53.90
76263;DHT22;65080;50.908;6.916;2023-07-13T08:45:32;21.00;53.70
76263;DHT22;65080;50.908;6.916;2023-07-13T08:48:11;21.10;53.70
76263;DHT22;65080;50.908;6.916;2023-07-13T08:50:49;21.20;53.70
76263;DHT22;65080;50.908;6.916;2023-07-13T08:53:32;21.20;53.50
76263;DHT22;65080;50.908;6.916;2023-07-13T08:56:03;21.30;53.50
76263;DHT22;65080;50.908;6.916;2023-07-13T08:58:33;21.30;53.40
76263;DHT22;65080;50.908;6.916;2023-07-13T09:01:05;21.30;53.10
76263;DHT22;65080;50.908;6.916;2023-07-13T09:03:42;21.40;53.10
76263;DHT22;65080;50.908;6.916;2023-07-13T09:06:15;21.40;52.90
76263;DHT22;65080;50.908;6.916;2023-07-13T09:08:53;21.50;52.80
76263;DHT22;65080;50.908;6.916;2023-07-13T09:11:38;21.70;52.70
76263;DHT22;65080;50.908;6.916;2023-07-13T09:17:13;21.80;52.50
76263;DHT22;65080;50.908;6.916;2023-07-13T09:19:48;21.80;52.30
76263;DHT22;65080;50.908;6.916;2023-07-13T09:22:19;21.70;52.20
76263;DHT22;65080;50.908;6.916;2023-07-13T09:24:54;21.80;52.30
76263;DHT22;65080;50.908;6.916;2023-07-13T09:27:29;21.90;52.30
76263;DHT22;65080;50.908;6.916;2023-07-13T09:30:04;22.00;52.00
76263;DHT22;65080;50.908;6.916;2023-07-13T09:32:40;22.10;51.80
76263;DHT22;65080;50.908;6.916;2023-07-13T09:35:12;22.20;51.70
76263;DHT22;65080;50.908;6.916;2023-07-13T09:37:43;22.30;51.50
76263;DHT22;65080;50.908;6.916;2023-07-13T09:40:25;22.30;51.10
76263;DHT22;65080;50.908;6.916;2023-07-13T09:42:56;22.30;51.00
76263;DHT22;65080;50.908;6.916;2023-07-13T09:45:28;22.20;51.00
76263;DHT22;65080;50.908;6.916;2023-07-13T09:48:00;22.20;50.90
76263;DHT22;65080;50.908;6.916;2023-07-13T09:50:32;22.30;51.50
76263;DHT22;65080;50.908;6.916;2023-07-13T09:53:01;22.40;50.60
76263;DHT22;65080;50.908;6.916;2023-07-13T09:55:33;22.50;50.20
76263;DHT22;65080;50.908;6.916;2023-07-13T09:58:10;22.60;49.90
76263;DHT22;65080;50.908;6.916;2023-07-13T10:00:40;22.70;49.50
76263;DHT22;65080;50.908;6.916;2023-07-13T10:03:17;22.70;49.30
76263;DHT22;65080;50.908;6.916;2023-07-13T10:05:48;22.70;49.10
76263;DHT22;65080;50.908;6.916;2023-07-13T10:08:20;22.80;49.10
76263;DHT22;65080;50.908;6.916;2023-07-13T10:10:53;22.80;48.70
76263;DHT22;65080;50.908;6.916;2023-07-13T10:13:28;22.80;48.40
76263;DHT22;65080;50.908;6.916;2023-07-13T10:15:58;22.80;48.80
76263;DHT22;65080;50.908;6.916;2023-07-13T10:18:28;22.80;49.10
76263;DHT22;65080;50.908;6.916;2023-07-13T10:21:11;22.90;49.10
76263;DHT22;65080;50.908;6.916;2023-07-13T10:23:50;23.00;48.50
76263;DHT22;65080;50.908;6.916;2023-07-13T10:26:23;23.10;48.60
76263;DHT22;65080;50.908;6.916;2023-07-13T10:28:55;23.20;48.50
76263;DHT22;65080;50.908;6.916;2023-07-13T10:31:25;23.40;48.30
76263;DHT22;65080;50.908;6.916;2023-07-13T10:33:54;23.60;48.00
76263;DHT22;65080;50.908;6.916;2023-07-13T10:36:32;23.80;47.60
76263;DHT22;65080;50.908;6.916;2023-07-13T10:39:03;23.90;47.00
76263;DHT22;65080;50.908;6.916;2023-07-13T10:41:36;23.90;47.00
76263;DHT22;65080;50.908;6.916;2023-07-13T10:44:10;24.00;46.60
76263;DHT22;65080;50.908;6.916;2023-07-13T10:46:41;24.10;46.50
76263;DHT22;65080;50.908;6.916;2023-07-13T10:49:12;24.10;46.50
76263;DHT22;65080;50.908;6.916;2023-07-13T10:51:42;24.10;46.20
76263;DHT22;65080;50.908;6.916;2023-07-13T10:54:16;23.90;45.90
76263;DHT22;65080;50.908;6.916;2023-07-13T10:56:50;24.00;46.00
76263;DHT22;65080;50.908;6.916;2023-07-13T10:59:24;23.90;46.00
76263;DHT22;65080;50.908;6.916;2023-07-13T11:01:57;23.90;46.00
76263;DHT22;65080;50.908;6.916;2023-07-13T11:04:27;23.80;45.90
76263;DHT22;65080;50.908;6.916;2023-07-13T11:07:00;23.80;45.90
76263;DHT22;65080;50.908;6.916;2023-07-13T11:09:39;23.70;45.80
76263;DHT22;65080;50.908;6.916;2023-07-13T11:12:10;23.70;45.80
76263;DHT22;65080;50.908;6.916;2023-07-13T11:15:11;23.70;46.00
76263;DHT22;65080;50.908;6.916;2023-07-13T11:17:51;23.70;46.40
76263;DHT22;65080;50.908;6.916;2023-07-13T11:20:40;23.70;46.30
76263;DHT22;65080;50.908;6.916;2023-07-13T11:23:28;23.70;46.30
76263;DHT22;65080;50.908;6.916;2023-07-13T11:25:57;23.70;46.40
76263;DHT22;65080;50.908;6.916;2023-07-13T11:28:30;23.80;46.70
76263;DHT22;65080;50.908;6.916;2023-07-13T11:31:14;23.80;46.70
76263;DHT22;65080;50.908;6.916;2023-07-13T11:34:00;23.90;46.20
76263;DHT22;65080;50.908;6.916;2023-07-13T11:36:32;23.90;45.80
76263;DHT22;65080;50.908;6.916;2023-07-13T11:39:11;23.90;45.80
76263;DHT22;65080;50.908;6.916;2023-07-13T11:41:45;23.90;45.50
76263;DHT22;65080;50.908;6.916;2023-07-13T11:44:19;23.80;45.30
76263;DHT22;65080;50.908;6.916;2023-07-13T11:46:50;23.80;45.50
76263;DHT22;65080;50.908;6.916;2023-07-13T11:49:22;23.70;45.70
76263;DHT22;65080;50.908;6.916;2023-07-13T11:51:52;23.80;46.00
76263;DHT22;65080;50.908;6.916;2023-07-13T11:54:29;23.70;45.90
76263;DHT22;65080;50.908;6.916;2023-07-13T11:57:00;23.70;46.00
76263;DHT22;65080;50.908;6.916;2023-07-13T11:59:31;23.70;46.00
76263;DHT22;65080;50.908;6.916;2023-07-13T12:02:00;23.60;46.00
76263;DHT22;65080;50.908;6.916;2023-07-13T12:04:31;23.70;46.10
76263;DHT22;65080;50.908;6.916;2023-07-13T12:07:05;23.70;46.00
76263;DHT22;65080;50.908;6.916;2023-07-13T12:09:35;23.70;45.70
76263;DHT22;65080;50.908;6.916;2023-07-13T12:12:11;23.70;45.40
76263;DHT22;65080;50.908;6.916;2023-07-13T12:14:39;23.70;44.90
76263;DHT22;65080;50.908;6.916;2023-07-13T12:17:16;23.60;44.70
76263;DHT22;65080;50.908;6.916;2023-07-13T12:19:44;23.50;44.70
76263;DHT22;65080;50.908;6.916;2023-07-13T12:22:14;23.50;44.70
76263;DHT22;65080;50.908;6.916;2023-07-13T12:24:45;23.50;44.80
76263;DHT22;65080;50.908;6.916;2023-07-13T12:27:20;23.60;45.00
76263;DHT22;65080;50.908;6.916;2023-07-13T12:29:50;23.50;45.00
76263;DHT22;65080;50.908;6.916;2023-07-13T12:32:20;23.60;45.10
76263;DHT22;65080;50.908;6.916;2023-07-13T12:34:53;23.70;45.20
76263;DHT22;65080;50.908;6.916;2023-07-13T12:37:23;23.70;44.90
76263;DHT22;65080;50.908;6.916;2023-07-13T12:39:53;23.70;44.60
76263;DHT22;65080;50.908;6.916;2023-07-13T12:42:24;23.80;44.40
76263;DHT22;65080;50.908;6.916;2023-07-13T12:44:58;23.70;44.20
76263;DHT22;65080;50.908;6.916;2023-07-13T12:47:28;23.70;44.10
76263;DHT22;65080;50.908;6.916;2023-07-13T12:49:59;23.70;44.00
76263;DHT22;65080;50.908;6.916;2023-07-13T12:52:30;23.80;44.40
76263;DHT22;65080;50.908;6.916;2023-07-13T12:55:05;23.90;43.60
76263;DHT22;65080;50.908;6.916;2023-07-13T12:57:41;23.90;43.10
76263;DHT22;65080;50.908;6.916;2023-07-13T13:00:25;24.00;43.60
76263;DHT22;65080;50.908;6.916;2023-07-13T13:02:57;23.90;42.90
76263;DHT22;65080;50.908;6.916;2023-07-13T13:05:47;23.90;43.00
76263;DHT22;65080;50.908;6.916;2023-07-13T13:08:16;24.00;43.10
76263;DHT22;65080;50.908;6.916;2023-07-13T13:10:45;24.30;43.10
76263;DHT22;65080;50.908;6.916;2023-07-13T13:13:15;24.60;42.70
76263;DHT22;65080;50.908;6.916;2023-07-13T13:15:44;25.00;42.40
76263;DHT22;65080;50.908;6.916;2023-07-13T13:18:17;25.20;41.90
76263;DHT22;65080;50.908;6.916;2023-07-13T13:20:46;25.50;41.10
76263;DHT22;65080;50.908;6.916;2023-07-13T13:23:16;25.80;40.70
76263;DHT22;65080;50.908;6.916;2023-07-13T13:25:49;26.00;40.40
76263;DHT22;65080;50.908;6.916;2023-07-13T13:28:20;26.20;40.00
76263;DHT22;65080;50.908;6.916;2023-07-13T13:30:49;26.40;39.70
76263;DHT22;65080;50.908;6.916;2023-07-13T13:33:20;26.70;39.30
76263;DHT22;65080;50.908;6.916;2023-07-13T13:35:48;27.10;38.80
76263;DHT22;65080;50.908;6.916;2023-07-13T13:38:19;27.20;38.70
76263;DHT22;65080;50.908;6.916;2023-07-13T13:40:49;27.40;38.40
76263;DHT22;65080;50.908;6.916;2023-07-13T13:43:18;27.60;38.30
76263;DHT22;65080;50.908;6.916;2023-07-13T13:45:47;27.70;38.00
76263;DHT22;65080;50.908;6.916;2023-07-13T13:48:18;27.80;37.40
76263;DHT22;65080;50.908;6.916;2023-07-13T13:50:47;28.00;36.90
76263;DHT22;65080;50.908;6.916;2023-07-13T13:53:15;28.10;36.70
76263;DHT22;65080;50.908;6.916;2023-07-13T13:55:44;28.10;36.50
76263;DHT22;65080;50.908;6.916;2023-07-13T13:58:15;28.00;36.40
76263;DHT22;65080;50.908;6.916;2023-07-13T14:00:43;27.80;36.70
76263;DHT22;65080;50.908;6.916;2023-07-13T14:03:15;27.50;36.90
76263;DHT22;65080;50.908;6.916;2023-07-13T14:05:45;27.30;37.10
76263;DHT22;65080;50.908;6.916;2023-07-13T14:08:14;27.40;37.30
76263;DHT22;65080;50.908;6.916;2023-07-13T14:10:45;27.60;37.00
76263;DHT22;65080;50.908;6.916;2023-07-13T14:13:18;27.60;36.70
76263;DHT22;65080;50.908;6.916;2023-07-13T14:15:48;27.60;36.70
76263;DHT22;65080;50.908;6.916;2023-07-13T14:18:16;27.70;36.80
76263;DHT22;65080;50.908;6.916;2023-07-13T14:20:46;27.90;36.80
76263;DHT22;65080;50.908;6.916;2023-07-13T14:23:15;28.10;36.50
76263;DHT22;65080;50.908;6.916;2023-07-13T14:25:46;28.30;35.90
76263;DHT22;65080;50.908;6.916;2023-07-13T14:28:21;28.30;35.70
76263;DHT22;65080;50.908;6.916;2023-07-13T14:30:51;28.60;35.80
76263;DHT22;65080;50.908;6.916;2023-07-13T14:33:21;28.90;35.50
76263;DHT22;65080;50.908;6.916;2023-07-13T14:35:50;29.00;34.70
76263;DHT22;65080;50.908;6.916;2023-07-13T14:38:20;29.10;34.60
76263;DHT22;65080;50.908;6.916;2023-07-13T14:40:48;29.20;34.50
76263;DHT22;65080;50.908;6.916;2023-07-13T14:43:19;29.40;34.30
76263;DHT22;65080;50.908;6.916;2023-07-13T14:45:49;29.50;34.10
76263;DHT22;65080;50.908;6.916;2023-07-13T14:48:20;29.70;34.00
76263;DHT22;65080;50.908;6.916;2023-07-13T14:50:53;29.60;33.80
76263;DHT22;65080;50.908;6.916;2023-07-13T14:53:24;29.40;33.80
76263;DHT22;65080;50.908;6.916;2023-07-13T14:55:53;29.40;34.00
76263;DHT22;65080;50.908;6.916;2023-07-13T14:58:23;29.40;33.80
76263;DHT22;65080;50.908;6.916;2023-07-13T15:00:52;29.40;33.70
76263;DHT22;65080;50.908;6.916;2023-07-13T15:03:24;29.50;33.70
76263;DHT22;65080;50.908;6.916;2023-07-13T15:05:53;29.70;33.40
76263;DHT22;65080;50.908;6.916;2023-07-13T15:08:21;29.80;33.20
76263;DHT22;65080;50.908;6.916;2023-07-13T15:10:50;29.90;33.20
76263;DHT22;65080;50.908;6.916;2023-07-13T15:13:20;29.80;33.10
76263;DHT22;65080;50.908;6.916;2023-07-13T15:15:51;29.80;32.90
76263;DHT22;65080;50.908;6.916;2023-07-13T15:18:22;30.00;32.70
76263;DHT22;65080;50.908;6.916;2023-07-13T15:20:51;30.00;32.40
76263;DHT22;65080;50.908;6.916;2023-07-13T15:23:22;29.80;32.40
76263;DHT22;65080;50.908;6.916;2023-07-13T15:25:50;29.80;32.50
76263;DHT22;65080;50.908;6.916;2023-07-13T15:28:19;29.60;32.40
76263;DHT22;65080;50.908;6.916;2023-07-13T15:30:48;29.40;32.60
76263;DHT22;65080;50.908;6.916;2023-07-13T15:33:21;29.30;32.80
76263;DHT22;65080;50.908;6.916;2023-07-13T15:35:50;29.20;33.10
76263;DHT22;65080;50.908;6.916;2023-07-13T15:38:22;29.10;33.20
76263;DHT22;65080;50.908;6.916;2023-07-13T15:40:51;28.80;33.40
76263;DHT22;65080;50.908;6.916;2023-07-13T15:43:19;28.50;33.80
76263;DHT22;65080;50.908;6.916;2023-07-13T15:45:48;28.10;34.20
76263;DHT22;65080;50.908;6.916;2023-07-13T15:48:22;27.80;34.60
76263;DHT22;65080;50.908;6.916;2023-07-13T15:50:52;27.70;34.80
76263;DHT22;65080;50.908;6.916;2023-07-13T15:53:23;27.50;35.10
76263;DHT22;65080;50.908;6.916;2023-07-13T15:55:52;27.20;35.40